createdAt,value
2022-10-23T00:02:15.365Z,0.88
2022-10-23T00:04:45.781Z,0.93
2022-10-23T00:07:17.547Z,0.80
2022-10-23T00:09:48.126Z,0.95
2022-10-23T00:12:18.344Z,0.88
2022-10-23T00:17:18.243Z,1.25
2022-10-23T00:22:18.150Z,1.38
2022-10-23T00:24:48.387Z,1.17
2022-10-23T00:29:48.094Z,1.70
2022-10-23T00:32:18.327Z,1.02
2022-10-23T00:37:18.317Z,1.02
2022-10-23T00:39:48.515Z,0.82
2022-10-23T00:42:21.417Z,1.45
2022-10-23T00:44:51.583Z,1.35
2022-10-23T00:47:21.935Z,1.10
2022-10-23T00:49:52.231Z,0.98
2022-10-23T00:54:52.285Z,1.17
2022-10-23T00:59:52.726Z,1.25
2022-10-23T01:02:23.357Z,1.13
2022-10-23T01:04:53.938Z,1.20
2022-10-23T01:07:58.568Z,1.10
2022-10-23T01:10:41.080Z,0.90
2022-10-23T01:13:34.711Z,1.30
2022-10-23T01:16:19.778Z,1.60
2022-10-23T01:19:19.532Z,1.90
2022-10-23T01:21:49.732Z,1.70
2022-10-23T01:24:45.508Z,1.85
2022-10-23T01:27:26.704Z,2.10
2022-10-23T01:30:07.291Z,1.42
2022-10-23T01:32:46.146Z,1.60
2022-10-23T01:35:31.471Z,1.25
2022-10-23T01:38:38.984Z,1.48
2022-10-23T01:41:46.923Z,0.93
2022-10-23T01:44:30.158Z,1.20
2022-10-23T01:47:01.079Z,1.23
2022-10-23T01:49:35.385Z,0.88
2022-10-23T01:52:09.967Z,0.95
2022-10-23T01:54:45.611Z,0.73
2022-10-23T01:57:19.582Z,0.70
2022-10-23T01:59:55.147Z,1.13
2022-10-23T02:02:28.113Z,1.23
2022-10-23T02:05:09.259Z,1.00
2022-10-23T02:07:40.567Z,1.00
2022-10-23T02:10:12.239Z,0.85
2022-10-23T02:13:05.727Z,1.23
2022-10-23T02:15:41.950Z,0.90
2022-10-23T02:18:37.234Z,1.33
2022-10-23T02:21:14.672Z,1.10
2022-10-23T02:23:58.701Z,1.52
2022-10-23T02:26:43.392Z,0.70
2022-10-23T02:29:21.557Z,1.20
2022-10-23T02:31:51.791Z,1.10
2022-10-23T02:36:51.777Z,1.50
2022-10-23T02:39:28.417Z,1.40
2022-10-23T02:42:24.157Z,0.85
2022-10-23T02:45:32.168Z,1.30
2022-10-23T02:48:35.225Z,1.25
2022-10-23T02:54:04.858Z,1.05
2022-10-23T02:56:56.246Z,1.08
2022-10-23T02:59:33.467Z,1.45
2022-10-23T03:02:10.896Z,1.23
2022-10-23T03:04:43.456Z,0.93
2022-10-23T03:07:16.063Z,1.35
2022-10-23T03:09:46.359Z,0.98
2022-10-23T03:12:17.303Z,1.55
2022-10-23T03:14:47.412Z,1.50
2022-10-23T03:17:17.591Z,1.50
2022-10-23T03:19:49.498Z,1.20
2022-10-23T03:24:50.109Z,1.10
2022-10-23T03:27:20.488Z,1.67
2022-10-23T03:29:50.650Z,0.98
2022-10-23T03:32:21.907Z,1.50
2022-10-23T03:34:52.047Z,1.23
2022-10-23T03:37:22.497Z,1.20
2022-10-23T03:39:53.304Z,0.95
2022-10-23T03:42:23.628Z,0.90
2022-10-23T03:44:53.627Z,0.68
2022-10-23T03:47:23.902Z,0.95
2022-10-23T03:49:54.079Z,0.88
2022-10-23T03:52:25.965Z,0.93
2022-10-23T03:57:25.667Z,1.10
2022-10-23T03:59:55.872Z,0.57
2022-10-23T04:02:26.333Z,0.85
2022-10-23T04:07:27.289Z,0.82
2022-10-23T04:09:57.845Z,1.08
2022-10-23T04:12:28.226Z,0.98
2022-10-23T04:19:58.841Z,0.90
2022-10-23T04:22:29.699Z,0.73
2022-10-23T04:25:00.300Z,1.00
2022-10-23T04:27:32.462Z,0.80
2022-10-23T04:30:05.005Z,0.95
2022-10-23T04:32:35.128Z,1.02
2022-10-23T04:35:07.909Z,0.95
2022-10-23T04:37:38.454Z,0.65
2022-10-23T04:40:10.361Z,0.82
2022-10-23T04:42:41.421Z,0.82
2022-10-23T04:45:12.529Z,0.70
2022-10-23T04:47:44.258Z,0.52
2022-10-23T04:50:14.647Z,1.40
2022-10-23T04:53:03.220Z,1.17
2022-10-23T04:55:53.388Z,0.70
2022-10-23T04:58:37.253Z,0.52
2022-10-23T05:01:08.530Z,0.63
2022-10-23T05:03:40.152Z,0.70
2022-10-23T05:06:10.976Z,1.02
2022-10-23T05:09:12.964Z,0.50
2022-10-23T05:11:57.856Z,0.65
2022-10-23T05:14:28.046Z,0.68
2022-10-23T05:17:04.787Z,0.52
2022-10-23T05:19:42.438Z,0.75
2022-10-23T05:22:13.821Z,0.65
2022-10-23T05:24:53.996Z,0.85
2022-10-23T05:27:29.576Z,0.82
2022-10-23T05:29:59.791Z,1.10
2022-10-23T05:32:35.323Z,0.85
2022-10-23T05:35:12.737Z,0.73
2022-10-23T05:37:46.943Z,1.08
2022-10-23T05:40:22.687Z,0.77
2022-10-23T05:42:57.283Z,0.90
2022-10-23T05:45:45.066Z,0.80
2022-10-23T05:48:38.165Z,0.60
2022-10-23T05:51:26.129Z,0.63
2022-10-23T05:54:01.434Z,1.17
2022-10-23T05:56:58.086Z,0.77
2022-10-23T05:59:36.356Z,0.70
2022-10-23T06:02:24.786Z,0.63
2022-10-23T06:05:10.157Z,0.50
2022-10-23T06:08:12.319Z,0.80
2022-10-23T06:10:42.907Z,0.65
2022-10-23T06:13:14.450Z,0.98
2022-10-23T06:15:44.776Z,1.00
2022-10-23T06:18:22.227Z,0.82
2022-10-23T06:21:03.011Z,1.05
2022-10-23T06:23:37.647Z,0.80
2022-10-23T06:26:22.910Z,0.57
2022-10-23T06:29:22.097Z,0.68
2022-10-23T06:31:53.785Z,0.30
2022-10-23T06:34:23.986Z,0.82
2022-10-23T06:36:54.260Z,0.75
2022-10-23T06:39:41.645Z,0.65
2022-10-23T06:42:16.694Z,0.70
2022-10-23T06:45:10.133Z,0.60
2022-10-23T06:48:00.442Z,0.98
2022-10-23T06:50:48.653Z,0.40
2022-10-23T06:53:25.993Z,0.90
2022-10-23T06:56:08.996Z,0.60
2022-10-23T06:58:41.066Z,0.70
2022-10-23T07:01:18.519Z,0.60
2022-10-23T07:03:50.360Z,0.43
2022-10-23T07:06:25.117Z,0.80
2022-10-23T07:08:56.032Z,0.77
2022-10-23T07:11:44.335Z,0.68
2022-10-23T07:14:15.759Z,0.60
2022-10-23T07:16:45.923Z,0.73
2022-10-23T07:19:16.348Z,0.80
2022-10-23T07:21:59.918Z,0.70
2022-10-23T07:24:42.289Z,0.90
2022-10-23T07:27:21.874Z,0.82
2022-10-23T07:29:58.549Z,0.63
2022-10-23T07:32:32.409Z,0.80
2022-10-23T07:35:21.093Z,0.75
2022-10-23T07:38:07.598Z,0.82
2022-10-23T07:40:42.436Z,1.00
2022-10-23T07:43:13.626Z,0.98
2022-10-23T07:45:43.958Z,0.80
2022-10-23T07:48:28.351Z,0.80
2022-10-23T07:51:04.243Z,0.90
2022-10-23T07:53:34.464Z,0.82
2022-10-23T07:56:31.090Z,1.05
2022-10-23T07:59:38.024Z,1.13
2022-10-23T08:02:17.745Z,1.10
2022-10-23T08:04:51.587Z,1.00
2022-10-23T08:07:32.898Z,0.60
2022-10-23T08:12:33.321Z,0.88
2022-10-23T08:15:03.969Z,1.33
2022-10-23T08:17:43.639Z,0.73
2022-10-23T08:20:17.351Z,1.15
2022-10-23T08:22:48.583Z,1.00
2022-10-23T08:25:25.252Z,0.93
2022-10-23T08:27:57.659Z,0.90
2022-10-23T08:30:28.282Z,0.63
2022-10-23T08:33:00.818Z,1.42
2022-10-23T08:35:31.022Z,1.20
2022-10-23T08:38:01.612Z,0.65
2022-10-23T08:40:37.377Z,0.93
2022-10-23T08:43:39.047Z,0.77
2022-10-23T08:46:28.434Z,0.63
2022-10-23T08:49:36.003Z,1.27
2022-10-23T08:52:20.705Z,0.77
2022-10-23T08:55:09.419Z,0.90
2022-10-23T08:57:47.080Z,1.08
2022-10-23T09:00:19.193Z,0.93
2022-10-23T09:02:52.935Z,0.75
2022-10-23T09:05:44.493Z,0.77
2022-10-23T09:08:21.023Z,0.75
2022-10-23T09:11:37.599Z,0.80
2022-10-23T09:15:04.474Z,0.60
2022-10-23T09:17:39.273Z,0.95
2022-10-23T09:20:31.494Z,0.77
2022-10-23T09:23:05.186Z,0.80
2022-10-23T09:25:41.021Z,0.68
2022-10-23T09:28:22.004Z,0.88
2022-10-23T09:30:53.454Z,1.08
2022-10-23T09:33:26.810Z,0.85
2022-10-23T09:36:19.990Z,0.85
2022-10-23T09:38:54.366Z,0.90
2022-10-23T09:41:33.762Z,0.82
2022-10-23T09:44:10.723Z,1.00
2022-10-23T09:49:33.300Z,1.90
2022-10-23T09:52:23.415Z,2.13
2022-10-23T09:55:00.014Z,1.70
2022-10-23T10:00:08.436Z,1.50
2022-10-23T10:02:57.381Z,1.60
2022-10-23T10:05:41.257Z,2.28
2022-10-23T10:08:41.077Z,2.80
2022-10-23T10:11:42.465Z,3.13
2022-10-23T10:17:00.877Z,1.38
2022-10-23T10:20:00.339Z,1.73
2022-10-23T10:25:33.305Z,0.98
2022-10-23T10:28:27.698Z,1.67
2022-10-23T10:31:10.113Z,2.22
2022-10-23T10:33:49.278Z,1.52
2022-10-23T10:36:47.871Z,2.50
2022-10-23T10:39:27.470Z,2.55
2022-10-23T10:42:20.641Z,2.80
2022-10-23T10:45:21.306Z,2.50
2022-10-23T10:48:11.511Z,2.67
2022-10-23T10:51:21.212Z,2.42
2022-10-23T10:54:15.840Z,2.30
2022-10-23T10:56:48.882Z,3.08
2022-10-23T10:59:19.068Z,2.67
2022-10-23T11:02:02.184Z,3.00
2022-10-23T11:04:46.451Z,3.15
2022-10-23T11:07:25.421Z,2.67
2022-10-23T11:09:55.776Z,2.55
2022-10-23T11:12:28.906Z,2.38
2022-10-23T11:14:59.212Z,3.00
2022-10-23T11:20:18.311Z,1.98
2022-10-23T11:23:08.228Z,2.53
2022-10-23T11:26:02.941Z,2.38
2022-10-23T11:29:03.358Z,2.08
2022-10-23T11:31:40.339Z,2.08
2022-10-23T11:34:25.912Z,2.35
2022-10-23T11:37:05.884Z,2.42
2022-10-23T11:39:41.195Z,2.00
2022-10-23T11:42:17.113Z,2.25
2022-10-23T11:44:48.359Z,1.58
2022-10-23T11:47:35.044Z,2.00
2022-10-23T11:50:11.285Z,2.22
2022-10-23T11:53:13.065Z,2.17
2022-10-23T11:56:04.150Z,1.67
2022-10-23T11:58:43.125Z,2.08
2022-10-23T12:01:27.910Z,2.45
2022-10-23T12:04:05.442Z,2.25
2022-10-23T12:06:43.255Z,2.25
2022-10-23T12:09:44.032Z,2.08
2022-10-23T12:12:14.199Z,2.00
2022-10-23T12:17:25.335Z,2.10
2022-10-23T12:20:14.844Z,2.03
2022-10-23T12:22:47.983Z,2.10
2022-10-23T12:25:36.512Z,1.75
2022-10-23T12:29:00.181Z,1.95
2022-10-23T12:31:39.592Z,2.20
2022-10-23T12:34:42.291Z,2.53
2022-10-23T12:37:40.216Z,2.70
2022-10-23T12:40:12.706Z,2.70
2022-10-23T12:42:51.488Z,3.20
2022-10-23T12:45:26.664Z,3.47
2022-10-23T12:47:57.117Z,3.95
2022-10-23T12:50:32.580Z,3.92
2022-10-23T12:53:05.115Z,3.53
2022-10-23T12:56:06.525Z,3.40
2022-10-23T12:58:37.214Z,2.92
2022-10-23T13:01:09.558Z,3.22
2022-10-23T13:03:40.809Z,3.05
2022-10-23T13:06:13.251Z,3.88
2022-10-23T13:08:47.111Z,3.42
2022-10-23T13:11:33.651Z,3.75
2022-10-23T13:14:14.185Z,3.58
2022-10-23T13:16:44.696Z,2.83
2022-10-23T13:19:28.584Z,2.22
2022-10-23T13:22:00.045Z,2.83
2022-10-23T13:24:32.518Z,3.03
2022-10-23T13:27:02.810Z,3.15
2022-10-23T13:32:23.652Z,3.03
2022-10-23T13:35:03.976Z,2.83
2022-10-23T13:37:47.247Z,2.22
2022-10-23T13:42:57.847Z,2.60
2022-10-23T13:45:29.267Z,2.40
2022-10-23T13:47:59.537Z,2.55
2022-10-23T13:50:29.794Z,2.60
2022-10-23T13:55:30.410Z,2.10
2022-10-23T13:58:00.656Z,1.95
2022-10-23T14:03:00.236Z,1.90
2022-10-23T14:05:31.377Z,1.98
2022-10-23T14:08:01.755Z,1.80
2022-10-23T14:10:31.969Z,2.50
2022-10-23T14:15:31.710Z,1.73
2022-10-23T14:18:07.279Z,1.98
2022-10-23T14:20:40.579Z,2.13
2022-10-23T14:23:10.816Z,1.38
2022-10-23T14:25:40.933Z,1.45
2022-10-23T14:28:11.249Z,1.77
2022-10-23T14:30:41.446Z,1.52
2022-10-23T14:33:11.718Z,1.40
2022-10-23T14:35:43.344Z,1.80
2022-10-23T14:38:13.540Z,1.27
2022-10-23T14:43:13.000Z,1.23
2022-10-23T14:48:13.255Z,1.33
2022-10-23T14:53:21.338Z,1.17
2022-10-23T14:55:51.457Z,1.20
2022-10-23T14:58:24.505Z,1.30
2022-10-23T15:01:02.356Z,1.10
2022-10-23T15:03:32.653Z,1.08
2022-10-23T15:06:03.376Z,0.80
2022-10-23T15:08:33.587Z,1.08
2022-10-23T15:11:07.755Z,1.02
2022-10-23T15:13:40.651Z,0.73
2022-10-23T15:18:41.176Z,0.73
2022-10-23T15:21:11.855Z,0.68
2022-10-23T15:23:45.282Z,0.75
2022-10-23T15:26:22.661Z,0.57
2022-10-23T15:29:03.853Z,1.23
2022-10-23T15:31:39.985Z,1.02
2022-10-23T15:34:13.194Z,0.95
2022-10-23T15:36:44.253Z,1.10
2022-10-23T15:39:16.810Z,0.73
2022-10-23T15:41:47.913Z,0.52
2022-10-23T15:44:20.834Z,0.88
2022-10-23T15:46:52.674Z,0.68
2022-10-23T15:49:23.303Z,0.50
2022-10-23T15:51:54.649Z,0.52
2022-10-23T15:54:28.033Z,0.70
2022-10-23T15:57:01.013Z,0.47
2022-10-23T15:59:32.775Z,0.65
2022-10-23T16:02:03.445Z,0.73
2022-10-23T16:04:34.435Z,1.13
2022-10-23T16:07:04.897Z,0.80
2022-10-23T16:09:35.075Z,0.85
2022-10-23T16:12:05.726Z,1.50
2022-10-23T16:14:36.027Z,1.10
2022-10-23T16:17:06.322Z,0.52
2022-10-23T16:19:36.717Z,0.63
2022-10-23T16:22:07.309Z,0.85
2022-10-23T16:24:37.475Z,1.73
2022-10-23T16:27:07.607Z,0.90
2022-10-23T16:29:37.740Z,2.03
2022-10-23T16:32:07.801Z,0.45
2022-10-23T16:34:38.245Z,1.05
2022-10-23T16:39:55.623Z,0.60
2022-10-23T16:45:37.875Z,0.70
2022-10-23T16:48:08.763Z,0.50
2022-10-23T16:50:42.610Z,0.38
2022-10-23T16:53:12.912Z,1.77
2022-10-23T16:55:43.171Z,0.20
2022-10-23T16:58:13.504Z,0.40
2022-10-23T17:00:43.803Z,0.30
2022-10-23T17:03:14.262Z,0.45
2022-10-23T17:05:44.501Z,0.45
2022-10-23T17:08:14.828Z,0.45
2022-10-23T17:10:45.137Z,0.30
2022-10-23T17:13:15.423Z,0.30
2022-10-23T17:15:45.653Z,0.30
2022-10-23T17:18:16.093Z,0.30
2022-10-23T17:20:46.204Z,0.20
2022-10-23T17:23:16.605Z,0.30
2022-10-23T17:25:46.892Z,0.47
2022-10-23T17:28:17.311Z,0.32
2022-10-23T17:30:47.509Z,0.40
2022-10-23T17:33:18.508Z,0.30
2022-10-23T17:35:48.728Z,0.10
2022-10-23T17:38:20.409Z,0.20
2022-10-23T17:40:50.630Z,0.20
2022-10-23T17:43:20.929Z,0.20
2022-10-23T17:45:51.067Z,0.30
2022-10-23T17:48:21.871Z,0.50
2022-10-23T17:50:52.078Z,0.17
2022-10-23T17:55:51.639Z,0.10
2022-10-23T17:58:21.849Z,0.13
2022-10-23T18:00:51.959Z,0.15
2022-10-23T18:03:22.311Z,0.20
2022-10-23T18:05:52.631Z,0.40
2022-10-23T18:08:22.977Z,0.10
2022-10-23T18:10:53.307Z,0.00
2022-10-23T18:13:23.779Z,0.15
2022-10-23T18:15:54.021Z,0.20
2022-10-23T18:18:24.419Z,0.17
2022-10-23T18:20:56.628Z,0.17
2022-10-23T18:23:30.851Z,0.30
2022-10-23T18:26:01.800Z,0.10
2022-10-23T18:28:32.964Z,0.30
2022-10-23T18:31:03.066Z,0.20
2022-10-23T18:33:33.512Z,0.10
2022-10-23T18:36:03.659Z,0.10
2022-10-23T18:38:33.893Z,0.10
2022-10-23T18:41:04.222Z,0.20
2022-10-23T18:43:44.155Z,0.17
2022-10-23T18:46:16.132Z,0.10
2022-10-23T18:48:47.111Z,0.13
2022-10-23T18:51:23.165Z,0.15
2022-10-23T18:53:54.283Z,0.10
2022-10-23T18:56:27.869Z,0.20
2022-10-23T18:59:00.604Z,0.38
2022-10-23T19:01:31.812Z,0.10
2022-10-23T19:04:03.439Z,0.13
2022-10-23T19:06:34.270Z,0.20
2022-10-23T19:09:06.945Z,0.10
2022-10-23T19:11:38.587Z,0.10
2022-10-23T19:14:09.372Z,0.10
2022-10-23T19:16:42.052Z,0.17
2022-10-23T19:19:20.937Z,0.20
2022-10-23T19:21:51.804Z,0.20
2022-10-23T19:24:34.959Z,0.00
2022-10-23T19:27:05.919Z,0.10
2022-10-23T19:29:37.882Z,0.00
2022-10-23T19:32:08.588Z,0.22
2022-10-23T19:34:39.191Z,0.10
2022-10-23T19:37:09.790Z,0.20
2022-10-23T19:39:40.198Z,0.10
2022-10-23T19:42:10.583Z,0.10
2022-10-23T19:44:40.829Z,0.17
2022-10-23T19:47:10.971Z,0.13
2022-10-23T19:49:41.677Z,0.10
2022-10-23T19:52:11.855Z,0.15
2022-10-23T19:57:13.536Z,0.10
2022-10-23T19:59:43.869Z,0.10
2022-10-23T20:02:14.290Z,0.10
2022-10-23T20:04:44.690Z,0.30
2022-10-23T20:07:15.619Z,0.40
2022-10-23T20:09:45.846Z,0.10
2022-10-23T20:12:16.165Z,0.17
2022-10-23T20:14:46.584Z,0.20
2022-10-23T20:17:16.955Z,0.40
2022-10-23T20:19:49.185Z,0.65
2022-10-23T20:22:20.728Z,0.70
2022-10-23T20:24:51.937Z,0.70
2022-10-23T20:27:22.109Z,0.50
2022-10-23T20:29:52.315Z,0.32
2022-10-23T20:32:22.672Z,0.57
2022-10-23T20:34:54.015Z,0.50
2022-10-23T20:37:24.286Z,0.40
2022-10-23T20:39:56.847Z,0.60
2022-10-23T20:42:27.069Z,0.22
2022-10-23T20:44:57.338Z,0.40
2022-10-23T20:47:27.613Z,0.38
2022-10-23T20:49:58.423Z,0.43
2022-10-23T20:55:06.583Z,0.50
2022-10-23T20:57:36.944Z,0.38
2022-10-23T21:00:08.479Z,0.50
2022-10-23T21:02:38.677Z,0.35
2022-10-23T21:05:09.315Z,0.40
2022-10-23T21:07:39.473Z,0.70
2022-10-23T21:10:10.638Z,0.70
2022-10-23T21:12:40.788Z,0.40
2022-10-23T21:17:42.159Z,0.52
2022-10-23T21:20:12.807Z,0.50
2022-10-23T21:22:42.964Z,0.43
2022-10-23T21:25:13.448Z,0.38
2022-10-23T21:27:43.902Z,0.60
2022-10-23T21:30:14.961Z,0.28
2022-10-23T21:32:45.166Z,0.43
2022-10-23T21:37:45.329Z,0.50
2022-10-23T21:40:15.907Z,0.95
2022-10-23T21:42:46.249Z,0.75
2022-10-23T21:45:16.582Z,0.68
2022-10-23T21:47:47.052Z,0.43
2022-10-23T21:50:18.028Z,0.52
2022-10-23T21:52:53.288Z,0.28
2022-10-23T21:55:26.925Z,0.20
2022-10-23T21:57:57.570Z,0.35
2022-10-23T22:00:27.923Z,0.60
2022-10-23T22:02:58.196Z,0.70
2022-10-23T22:07:57.894Z,0.38
2022-10-23T22:10:28.080Z,0.52
2022-10-23T22:15:27.542Z,0.73
2022-10-23T22:20:27.523Z,0.57
2022-10-23T22:22:59.080Z,0.63
2022-10-23T22:25:29.379Z,0.80
2022-10-23T22:30:29.397Z,0.60
2022-10-23T22:35:29.245Z,0.47
2022-10-23T22:37:59.641Z,0.47
2022-10-23T22:40:30.132Z,0.60
2022-10-23T22:43:01.375Z,0.60
2022-10-23T22:45:31.647Z,1.02
2022-10-23T22:50:31.210Z,0.55
2022-10-23T22:55:31.449Z,0.57
2022-10-23T22:58:01.716Z,0.40
2022-10-23T23:03:01.687Z,0.30
2022-10-23T23:05:32.290Z,0.57
2022-10-23T23:08:02.676Z,0.30
2022-10-23T23:13:02.552Z,0.65
2022-10-23T23:15:32.981Z,0.25
2022-10-23T23:18:03.321Z,1.05
2022-10-23T23:20:33.619Z,0.50
2022-10-23T23:25:33.604Z,0.43
2022-10-23T23:30:33.375Z,0.70
2022-10-23T23:33:03.972Z,0.32
2022-10-23T23:35:34.144Z,0.50
2022-10-23T23:38:04.434Z,0.47
2022-10-23T23:40:34.995Z,0.38
2022-10-23T23:43:05.657Z,0.35
2022-10-23T23:45:35.964Z,0.45
2022-10-23T23:48:06.179Z,0.73
2022-10-23T23:50:36.483Z,0.50
2022-10-23T23:55:37.004Z,0.50
2022-10-23T23:58:07.337Z,0.30
